This is the latest recevied weather packets stored in our database for station/object N8WJW. If no packets are shown the sender has not sent any weather packets the latest 1 day(s).
| Time | Temp. | Humidity | Pressure | Rain* | Wind** | Luminosity | Snow |
|---|---|---|---|---|---|---|---|
| 1777975658 | 17.78° C | 67% | 1005.4 hPa | 0 mm | 1.79 m/s, 210° | 0 W/m² | - |
| 1777975355 | 17.78° C | 68% | 1005.2 hPa | 0 mm | 1.79 m/s, 204° | 0 W/m² | - |
| 1777975050 | 17.78° C | 69% | 1005.2 hPa | 0 mm | 1.34 m/s, 196° | 0 W/m² | - |
| 1777974748 | 17.78° C | 67% | 1005.2 hPa | 0 mm | 3.58 m/s, 242° | 0 W/m² | - |
| 1777974443 | 17.78° C | 68% | 1005.2 hPa | 0 mm | 2.24 m/s, 201° | 0 W/m² | - |
| 1777974140 | 17.78° C | 69% | 1005.2 hPa | 0 mm | 2.24 m/s, 188° | 0 W/m² | - |
| 1777973836 | 17.22° C | 69% | 1004.8 hPa | 0 mm | 1.34 m/s, 190° | 0 W/m² | - |
| 1777973534 | 17.78° C | 69% | 1004.8 hPa | 0 mm | 1.34 m/s, 204° | 0 W/m² | - |
| 1777973230 | 17.78° C | 68% | 1004.7 hPa | 0 mm | 0 m/s | 0 W/m² | - |
| 1777972930 | 17.78° C | 68% | 1005 hPa | 0 mm | 1.34 m/s, 224° | 0 W/m² | - |
| 1777972626 | 17.78° C | 67% | 1004.6 hPa | 0 mm | 1.34 m/s, 199° | 0 W/m² | - |
| 1777972332 | 17.78° C | 67% | 1004.9 hPa | 0 mm | 2.24 m/s, 213° | 0 W/m² | - |
| 1777972021 | 17.78° C | 68% | 1004.8 hPa | 0 mm | 2.24 m/s, 185° | 0 W/m² | - |
| 1777971720 | 17.78° C | 68% | 1004.7 hPa | 0 mm | 2.24 m/s, 179° | 0 W/m² | - |
| 1777971417 | 17.78° C | 67% | 1004.8 hPa | 0 mm | 2.24 m/s, 184° | 0 W/m² | - |
| 1777971115 | 17.78° C | 68% | 1004.8 hPa | 0 mm | 4.47 m/s, 243° | 0 W/m² | - |
| 1777970812 | 17.78° C | 67% | 1004.8 hPa | 0 mm | 4.02 m/s, 199° | 0 W/m² | - |
| 1777970516 | 17.78° C | 67% | 1004.8 hPa | 0 mm | 1.34 m/s, 182° | 0 W/m² | - |
| 1777970207 | 18.33° C | 67% | 1004.9 hPa | 0 mm | 2.24 m/s, 240° | 0 W/m² | - |
| 1777969904 | 18.33° C | 67% | 1005 hPa | 0 mm | 2.24 m/s, 211° | 0 W/m² | - |
| 1777969600 | 18.33° C | 68% | 1004.7 hPa | 0 mm | 2.24 m/s, 203° | 0 W/m² | - |
| 1777969297 | 18.33° C | 67% | 1004.8 hPa | 0 mm | 0.89 m/s, 205° | 0 W/m² | - |
| 1777968993 | 18.33° C | 67% | 1004.4 hPa | 0 mm | 2.24 m/s, 218° | 0 W/m² | - |
| 1777968697 | 18.33° C | 67% | 1004.6 hPa | 0 mm | 3.58 m/s, 257° | 0 W/m² | - |
| 1777968387 | 18.33° C | 67% | 1004.4 hPa | 0 mm | 2.68 m/s, 237° | 0 W/m² | - |
* Rain latest hour (hover to see other rain measurements)
** Current wind speed in m/s (hover to see current wind gust speed)